sensor_id;sensor_type;location;lat;lon;timestamp;P1;durP1;ratioP1;P2;durP2;ratioP2
18435;SDS011;9346;52.006;4.720;2023-04-06T00:00:47;31.57;;;12.53;;
18435;SDS011;9346;52.006;4.720;2023-04-06T00:03:14;31.10;;;12.83;;
18435;SDS011;9346;52.006;4.720;2023-04-06T00:05:41;22.63;;;10.87;;
18435;SDS011;9346;52.006;4.720;2023-04-06T00:08:11;20.43;;;10.07;;
18435;SDS011;9346;52.006;4.720;2023-04-06T00:10:37;19.53;;;10.47;;
18435;SDS011;9346;52.006;4.720;2023-04-06T00:13:04;17.87;;;9.03;;
18435;SDS011;9346;52.006;4.720;2023-04-06T00:15:32;20.27;;;10.00;;
18435;SDS011;9346;52.006;4.720;2023-04-06T00:17:59;19.27;;;10.17;;
18435;SDS011;9346;52.006;4.720;2023-04-06T00:20:26;17.63;;;9.63;;
18435;SDS011;9346;52.006;4.720;2023-04-06T00:22:53;20.33;;;9.60;;
18435;SDS011;9346;52.006;4.720;2023-04-06T00:25:22;16.00;;;8.67;;
18435;SDS011;9346;52.006;4.720;2023-04-06T00:27:49;13.77;;;8.10;;
18435;SDS011;9346;52.006;4.720;2023-04-06T00:30:16;15.27;;;7.93;;
18435;SDS011;9346;52.006;4.720;2023-04-06T00:32:42;22.30;;;8.70;;
18435;SDS011;9346;52.006;4.720;2023-04-06T00:35:09;16.00;;;7.90;;
18435;SDS011;9346;52.006;4.720;2023-04-06T00:37:36;15.20;;;7.27;;
18435;SDS011;9346;52.006;4.720;2023-04-06T00:40:04;15.27;;;7.50;;
18435;SDS011;9346;52.006;4.720;2023-04-06T00:42:33;16.50;;;7.67;;
18435;SDS011;9346;52.006;4.720;2023-04-06T00:45:00;16.73;;;7.70;;
18435;SDS011;9346;52.006;4.720;2023-04-06T00:47:28;15.47;;;7.13;;
18435;SDS011;9346;52.006;4.720;2023-04-06T00:49:55;13.13;;;6.43;;
18435;SDS011;9346;52.006;4.720;2023-04-06T00:52:22;15.60;;;7.43;;
18435;SDS011;9346;52.006;4.720;2023-04-06T00:54:49;16.27;;;7.53;;
18435;SDS011;9346;52.006;4.720;2023-04-06T00:57:16;12.87;;;7.67;;
18435;SDS011;9346;52.006;4.720;2023-04-06T00:59:46;15.17;;;7.03;;
18435;SDS011;9346;52.006;4.720;2023-04-06T01:02:13;16.97;;;7.27;;
18435;SDS011;9346;52.006;4.720;2023-04-06T01:04:40;12.23;;;7.50;;
18435;SDS011;9346;52.006;4.720;2023-04-06T01:07:06;16.83;;;7.10;;
18435;SDS011;9346;52.006;4.720;2023-04-06T01:09:33;13.43;;;7.53;;
18435;SDS011;9346;52.006;4.720;2023-04-06T01:12:00;12.70;;;7.30;;
18435;SDS011;9346;52.006;4.720;2023-04-06T01:14:28;14.17;;;7.30;;
18435;SDS011;9346;52.006;4.720;2023-04-06T01:16:58;15.43;;;7.83;;
18435;SDS011;9346;52.006;4.720;2023-04-06T01:19:27;15.23;;;7.33;;
18435;SDS011;9346;52.006;4.720;2023-04-06T01:21:54;16.23;;;9.07;;
18435;SDS011;9346;52.006;4.720;2023-04-06T01:24:23;12.80;;;7.43;;
18435;SDS011;9346;52.006;4.720;2023-04-06T01:26:50;14.53;;;8.00;;
18435;SDS011;9346;52.006;4.720;2023-04-06T01:29:17;16.30;;;7.50;;
18435;SDS011;9346;52.006;4.720;2023-04-06T01:31:44;16.33;;;7.03;;
18435;SDS011;9346;52.006;4.720;2023-04-06T01:34:11;11.80;;;7.17;;
18435;SDS011;9346;52.006;4.720;2023-04-06T01:36:38;17.80;;;8.73;;
18435;SDS011;9346;52.006;4.720;2023-04-06T01:39:04;16.97;;;7.97;;
18435;SDS011;9346;52.006;4.720;2023-04-06T01:41:34;14.90;;;7.70;;
18435;SDS011;9346;52.006;4.720;2023-04-06T01:44:01;16.00;;;7.70;;
18435;SDS011;9346;52.006;4.720;2023-04-06T01:46:28;15.90;;;8.10;;
18435;SDS011;9346;52.006;4.720;2023-04-06T01:48:55;17.43;;;8.53;;
18435;SDS011;9346;52.006;4.720;2023-04-06T01:51:22;11.73;;;8.07;;
18435;SDS011;9346;52.006;4.720;2023-04-06T01:53:50;15.10;;;8.57;;
18435;SDS011;9346;52.006;4.720;2023-04-06T01:56:17;14.47;;;8.20;;
18435;SDS011;9346;52.006;4.720;2023-04-06T01:58:45;13.53;;;7.40;;
18435;SDS011;9346;52.006;4.720;2023-04-06T02:01:12;18.10;;;9.00;;
18435;SDS011;9346;52.006;4.720;2023-04-06T02:03:39;16.70;;;8.50;;
18435;SDS011;9346;52.006;4.720;2023-04-06T02:06:06;14.77;;;7.57;;
18435;SDS011;9346;52.006;4.720;2023-04-06T02:08:33;14.23;;;8.27;;
18435;SDS011;9346;52.006;4.720;2023-04-06T02:11:00;15.60;;;8.17;;
18435;SDS011;9346;52.006;4.720;2023-04-06T02:13:27;13.30;;;8.87;;
18435;SDS011;9346;52.006;4.720;2023-04-06T02:15:56;15.53;;;8.37;;
18435;SDS011;9346;52.006;4.720;2023-04-06T02:18:23;16.63;;;9.00;;
18435;SDS011;9346;52.006;4.720;2023-04-06T02:20:50;14.50;;;8.13;;
18435;SDS011;9346;52.006;4.720;2023-04-06T02:23:17;15.67;;;8.63;;
18435;SDS011;9346;52.006;4.720;2023-04-06T02:25:44;18.80;;;8.00;;
18435;SDS011;9346;52.006;4.720;2023-04-06T02:28:11;13.40;;;7.90;;
18435;SDS011;9346;52.006;4.720;2023-04-06T02:30:39;14.20;;;8.50;;
18435;SDS011;9346;52.006;4.720;2023-04-06T02:33:07;15.07;;;8.60;;
18435;SDS011;9346;52.006;4.720;2023-04-06T02:35:34;21.60;;;10.20;;
18435;SDS011;9346;52.006;4.720;2023-04-06T02:38:01;17.43;;;8.23;;
18435;SDS011;9346;52.006;4.720;2023-04-06T02:40:28;13.83;;;8.60;;
18435;SDS011;9346;52.006;4.720;2023-04-06T02:42:55;20.73;;;8.50;;
18435;SDS011;9346;52.006;4.720;2023-04-06T02:45:22;11.87;;;7.03;;
18435;SDS011;9346;52.006;4.720;2023-04-06T02:47:49;18.80;;;8.87;;
18435;SDS011;9346;52.006;4.720;2023-04-06T02:50:18;17.17;;;9.37;;
18435;SDS011;9346;52.006;4.720;2023-04-06T02:52:44;16.93;;;8.73;;
18435;SDS011;9346;52.006;4.720;2023-04-06T02:55:12;20.87;;;9.33;;
18435;SDS011;9346;52.006;4.720;2023-04-06T02:57:39;16.13;;;8.80;;
18435;SDS011;9346;52.006;4.720;2023-04-06T03:00:07;15.67;;;8.43;;
18435;SDS011;9346;52.006;4.720;2023-04-06T03:02:35;16.17;;;8.47;;
18435;SDS011;9346;52.006;4.720;2023-04-06T03:05:02;17.23;;;8.87;;
18435;SDS011;9346;52.006;4.720;2023-04-06T03:07:31;19.93;;;9.77;;
18435;SDS011;9346;52.006;4.720;2023-04-06T03:09:58;19.73;;;9.67;;
18435;SDS011;9346;52.006;4.720;2023-04-06T03:12:25;14.73;;;7.97;;
18435;SDS011;9346;52.006;4.720;2023-04-06T03:14:52;17.40;;;8.80;;
18435;SDS011;9346;52.006;4.720;2023-04-06T03:17:18;18.43;;;8.17;;
18435;SDS011;9346;52.006;4.720;2023-04-06T03:19:45;17.80;;;9.67;;
18435;SDS011;9346;52.006;4.720;2023-04-06T03:22:12;19.53;;;10.17;;
18435;SDS011;9346;52.006;4.720;2023-04-06T03:24:41;18.90;;;8.70;;
18435;SDS011;9346;52.006;4.720;2023-04-06T03:27:22;17.03;;;8.87;;
18435;SDS011;9346;52.006;4.720;2023-04-06T03:29:49;19.90;;;9.60;;
18435;SDS011;9346;52.006;4.720;2023-04-06T03:32:16;18.07;;;8.87;;
18435;SDS011;9346;52.006;4.720;2023-04-06T03:34:43;18.97;;;10.10;;
18435;SDS011;9346;52.006;4.720;2023-04-06T03:37:10;18.60;;;10.57;;
18435;SDS011;9346;52.006;4.720;2023-04-06T03:39:37;18.17;;;8.93;;
18435;SDS011;9346;52.006;4.720;2023-04-06T03:42:06;20.23;;;9.67;;
18435;SDS011;9346;52.006;4.720;2023-04-06T03:44:33;18.37;;;9.43;;
18435;SDS011;9346;52.006;4.720;2023-04-06T03:47:00;19.30;;;10.10;;
18435;SDS011;9346;52.006;4.720;2023-04-06T03:49:28;15.17;;;8.90;;
18435;SDS011;9346;52.006;4.720;2023-04-06T03:54:22;18.77;;;9.97;;
18435;SDS011;9346;52.006;4.720;2023-04-06T03:56:50;17.17;;;9.33;;
18435;SDS011;9346;52.006;4.720;2023-04-06T03:59:18;21.20;;;10.80;;
18435;SDS011;9346;52.006;4.720;2023-04-06T04:01:45;18.50;;;9.30;;
18435;SDS011;9346;52.006;4.720;2023-04-06T04:04:12;24.50;;;10.00;;
18435;SDS011;9346;52.006;4.720;2023-04-06T04:06:39;20.67;;;9.50;;
18435;SDS011;9346;52.006;4.720;2023-04-06T04:09:06;22.37;;;10.20;;
18435;SDS011;9346;52.006;4.720;2023-04-06T04:11:33;20.00;;;9.73;;
18435;SDS011;9346;52.006;4.720;2023-04-06T04:14:00;16.73;;;9.13;;
18435;SDS011;9346;52.006;4.720;2023-04-06T04:16:28;19.57;;;9.87;;
18435;SDS011;9346;52.006;4.720;2023-04-06T04:18:55;21.60;;;10.77;;
18435;SDS011;9346;52.006;4.720;2023-04-06T04:21:23;17.13;;;10.10;;
18435;SDS011;9346;52.006;4.720;2023-04-06T04:23:50;18.63;;;10.43;;
18435;SDS011;9346;52.006;4.720;2023-04-06T04:26:17;17.63;;;10.23;;
18435;SDS011;9346;52.006;4.720;2023-04-06T04:28:44;19.50;;;9.93;;
18435;SDS011;9346;52.006;4.720;2023-04-06T04:31:11;21.40;;;11.37;;
18435;SDS011;9346;52.006;4.720;2023-04-06T04:33:40;25.50;;;9.13;;
18435;SDS011;9346;52.006;4.720;2023-04-06T04:36:07;20.50;;;10.47;;
18435;SDS011;9346;52.006;4.720;2023-04-06T04:38:35;19.33;;;10.20;;
18435;SDS011;9346;52.006;4.720;2023-04-06T04:41:02;21.53;;;10.13;;
18435;SDS011;9346;52.006;4.720;2023-04-06T04:43:29;22.83;;;11.37;;
18435;SDS011;9346;52.006;4.720;2023-04-06T04:45:56;20.23;;;10.40;;
18435;SDS011;9346;52.006;4.720;2023-04-06T04:48:24;21.23;;;11.17;;
18435;SDS011;9346;52.006;4.720;2023-04-06T04:50:52;23.37;;;11.03;;
18435;SDS011;9346;52.006;4.720;2023-04-06T04:53:20;25.00;;;11.10;;
18435;SDS011;9346;52.006;4.720;2023-04-06T04:55:46;19.13;;;10.57;;
18435;SDS011;9346;52.006;4.720;2023-04-06T04:58:13;27.13;;;10.83;;
18435;SDS011;9346;52.006;4.720;2023-04-06T05:00:41;20.60;;;11.40;;
18435;SDS011;9346;52.006;4.720;2023-04-06T05:03:11;25.13;;;11.57;;
18435;SDS011;9346;52.006;4.720;2023-04-06T05:05:44;20.80;;;11.33;;
18435;SDS011;9346;52.006;4.720;2023-04-06T05:08:13;21.60;;;11.50;;
18435;SDS011;9346;52.006;4.720;2023-04-06T05:10:40;20.17;;;10.90;;
18435;SDS011;9346;52.006;4.720;2023-04-06T05:13:08;24.83;;;11.63;;
18435;SDS011;9346;52.006;4.720;2023-04-06T05:15:34;20.60;;;10.83;;
18435;SDS011;9346;52.006;4.720;2023-04-06T05:18:05;25.93;;;11.97;;
18435;SDS011;9346;52.006;4.720;2023-04-06T05:20:34;20.27;;;10.20;;
18435;SDS011;9346;52.006;4.720;2023-04-06T05:23:09;20.37;;;11.77;;
18435;SDS011;9346;52.006;4.720;2023-04-06T05:25:39;22.67;;;12.13;;
18435;SDS011;9346;52.006;4.720;2023-04-06T05:28:09;24.13;;;12.37;;
18435;SDS011;9346;52.006;4.720;2023-04-06T05:30:39;24.80;;;12.43;;
18435;SDS011;9346;52.006;4.720;2023-04-06T05:33:06;26.80;;;11.37;;
18435;SDS011;9346;52.006;4.720;2023-04-06T05:35:32;21.20;;;11.57;;
18435;SDS011;9346;52.006;4.720;2023-04-06T05:37:59;21.70;;;12.33;;
18435;SDS011;9346;52.006;4.720;2023-04-06T05:40:26;23.73;;;12.60;;
18435;SDS011;9346;52.006;4.720;2023-04-06T05:42:55;23.63;;;11.87;;
18435;SDS011;9346;52.006;4.720;2023-04-06T05:45:22;26.10;;;13.10;;
18435;SDS011;9346;52.006;4.720;2023-04-06T05:47:49;20.67;;;11.03;;
18435;SDS011;9346;52.006;4.720;2023-04-06T05:50:17;24.87;;;11.57;;
18435;SDS011;9346;52.006;4.720;2023-04-06T05:52:43;21.23;;;11.90;;
18435;SDS011;9346;52.006;4.720;2023-04-06T05:55:11;24.80;;;11.87;;
18435;SDS011;9346;52.006;4.720;2023-04-06T05:57:38;21.50;;;12.77;;
18435;SDS011;9346;52.006;4.720;2023-04-06T06:00:09;27.93;;;11.37;;
18435;SDS011;9346;52.006;4.720;2023-04-06T06:02:36;24.47;;;11.67;;
18435;SDS011;9346;52.006;4.720;2023-04-06T06:05:04;22.23;;;12.20;;
18435;SDS011;9346;52.006;4.720;2023-04-06T06:07:31;25.53;;;11.83;;
18435;SDS011;9346;52.006;4.720;2023-04-06T06:09:58;22.13;;;12.47;;
18435;SDS011;9346;52.006;4.720;2023-04-06T06:12:25;24.07;;;11.70;;
18435;SDS011;9346;52.006;4.720;2023-04-06T06:14:52;23.33;;;12.17;;
18435;SDS011;9346;52.006;4.720;2023-04-06T06:17:21;22.60;;;12.20;;
18435;SDS011;9346;52.006;4.720;2023-04-06T06:19:48;21.80;;;12.40;;
18435;SDS011;9346;52.006;4.720;2023-04-06T06:22:15;23.53;;;11.40;;
18435;SDS011;9346;52.006;4.720;2023-04-06T06:24:42;27.67;;;12.13;;
18435;SDS011;9346;52.006;4.720;2023-04-06T06:27:09;26.00;;;11.93;;
18435;SDS011;9346;52.006;4.720;2023-04-06T06:29:36;18.87;;;10.20;;
18435;SDS011;9346;52.006;4.720;2023-04-06T06:32:03;24.20;;;11.30;;
18435;SDS011;9346;52.006;4.720;2023-04-06T06:34:32;23.37;;;11.87;;
18435;SDS011;9346;52.006;4.720;2023-04-06T06:36:59;28.63;;;12.50;;
18435;SDS011;9346;52.006;4.720;2023-04-06T06:39:27;20.30;;;11.73;;
18435;SDS011;9346;52.006;4.720;2023-04-06T06:41:54;27.63;;;11.97;;
18435;SDS011;9346;52.006;4.720;2023-04-06T06:44:21;23.70;;;11.73;;
18435;SDS011;9346;52.006;4.720;2023-04-06T06:46:48;26.03;;;12.80;;
18435;SDS011;9346;52.006;4.720;2023-04-06T06:49:15;24.97;;;11.83;;
18435;SDS011;9346;52.006;4.720;2023-04-06T06:51:47;21.27;;;11.57;;
18435;SDS011;9346;52.006;4.720;2023-04-06T06:54:14;22.50;;;11.90;;
18435;SDS011;9346;52.006;4.720;2023-04-06T06:56:42;20.70;;;10.43;;
18435;SDS011;9346;52.006;4.720;2023-04-06T06:59:09;25.60;;;11.73;;
18435;SDS011;9346;52.006;4.720;2023-04-06T07:01:36;24.13;;;12.33;;
18435;SDS011;9346;52.006;4.720;2023-04-06T07:04:02;23.13;;;12.57;;
18435;SDS011;9346;52.006;4.720;2023-04-06T07:06:30;23.10;;;12.10;;
18435;SDS011;9346;52.006;4.720;2023-04-06T07:08:58;32.70;;;12.37;;
18435;SDS011;9346;52.006;4.720;2023-04-06T07:11:25;27.27;;;12.33;;
18435;SDS011;9346;52.006;4.720;2023-04-06T07:13:51;28.47;;;12.53;;
18435;SDS011;9346;52.006;4.720;2023-04-06T07:16:18;24.03;;;12.43;;
18435;SDS011;9346;52.006;4.720;2023-04-06T07:18:45;20.50;;;10.90;;
18435;SDS011;9346;52.006;4.720;2023-04-06T07:21:14;28.17;;;12.67;;
18435;SDS011;9346;52.006;4.720;2023-04-06T07:23:41;22.60;;;11.87;;
18435;SDS011;9346;52.006;4.720;2023-04-06T07:26:10;22.57;;;11.93;;
18435;SDS011;9346;52.006;4.720;2023-04-06T07:28:37;23.23;;;12.53;;
18435;SDS011;9346;52.006;4.720;2023-04-06T07:31:04;27.67;;;13.47;;
18435;SDS011;9346;52.006;4.720;2023-04-06T07:33:31;25.27;;;12.37;;
18435;SDS011;9346;52.006;4.720;2023-04-06T07:35:58;24.00;;;13.10;;
18435;SDS011;9346;52.006;4.720;2023-04-06T07:38:25;21.47;;;11.77;;
18435;SDS011;9346;52.006;4.720;2023-04-06T07:40:52;31.67;;;12.50;;
18435;SDS011;9346;52.006;4.720;2023-04-06T07:43:21;25.73;;;12.60;;
18435;SDS011;9346;52.006;4.720;2023-04-06T07:45:48;25.27;;;13.23;;
18435;SDS011;9346;52.006;4.720;2023-04-06T07:48:15;28.53;;;13.43;;
18435;SDS011;9346;52.006;4.720;2023-04-06T07:50:42;27.60;;;14.27;;
18435;SDS011;9346;52.006;4.720;2023-04-06T07:53:09;25.07;;;13.83;;
18435;SDS011;9346;52.006;4.720;2023-04-06T07:55:36;27.93;;;13.63;;
18435;SDS011;9346;52.006;4.720;2023-04-06T07:58:03;26.33;;;14.83;;
18435;SDS011;9346;52.006;4.720;2023-04-06T08:00:32;31.53;;;14.73;;
18435;SDS011;9346;52.006;4.720;2023-04-06T08:03:00;32.23;;;14.87;;
18435;SDS011;9346;52.006;4.720;2023-04-06T08:05:26;25.37;;;14.17;;
18435;SDS011;9346;52.006;4.720;2023-04-06T08:07:54;31.33;;;15.47;;
18435;SDS011;9346;52.006;4.720;2023-04-06T08:10:20;35.80;;;13.53;;
18435;SDS011;9346;52.006;4.720;2023-04-06T08:12:47;30.83;;;15.70;;
18435;SDS011;9346;52.006;4.720;2023-04-06T08:15:14;30.30;;;13.93;;
18435;SDS011;9346;52.006;4.720;2023-04-06T08:17:44;31.20;;;14.03;;
18435;SDS011;9346;52.006;4.720;2023-04-06T08:20:11;25.27;;;14.27;;
18435;SDS011;9346;52.006;4.720;2023-04-06T08:22:38;30.03;;;15.03;;
18435;SDS011;9346;52.006;4.720;2023-04-06T08:25:06;30.00;;;13.33;;
18435;SDS011;9346;52.006;4.720;2023-04-06T08:27:33;27.93;;;15.33;;
18435;SDS011;9346;52.006;4.720;2023-04-06T08:30:00;25.10;;;14.43;;
18435;SDS011;9346;52.006;4.720;2023-04-06T08:32:27;28.53;;;14.80;;
18435;SDS011;9346;52.006;4.720;2023-04-06T08:34:56;26.63;;;15.27;;
18435;SDS011;9346;52.006;4.720;2023-04-06T08:37:24;25.97;;;13.57;;
18435;SDS011;9346;52.006;4.720;2023-04-06T08:39:51;26.57;;;14.23;;
18435;SDS011;9346;52.006;4.720;2023-04-06T08:42:18;34.50;;;15.57;;
18435;SDS011;9346;52.006;4.720;2023-04-06T08:44:47;35.40;;;16.07;;
18435;SDS011;9346;52.006;4.720;2023-04-06T08:47:16;29.80;;;16.13;;
18435;SDS011;9346;52.006;4.720;2023-04-06T08:49:43;28.27;;;14.33;;
18435;SDS011;9346;52.006;4.720;2023-04-06T08:52:12;29.10;;;15.43;;
18435;SDS011;9346;52.006;4.720;2023-04-06T08:54:41;40.50;;;14.60;;
18435;SDS011;9346;52.006;4.720;2023-04-06T08:57:09;27.47;;;14.50;;
18435;SDS011;9346;52.006;4.720;2023-04-06T08:59:36;28.80;;;14.10;;
18435;SDS011;9346;52.006;4.720;2023-04-06T09:02:04;30.37;;;13.13;;
18435;SDS011;9346;52.006;4.720;2023-04-06T09:04:32;30.43;;;14.20;;
18435;SDS011;9346;52.006;4.720;2023-04-06T09:07:02;27.97;;;14.03;;
18435;SDS011;9346;52.006;4.720;2023-04-06T09:09:30;27.67;;;12.70;;
18435;SDS011;9346;52.006;4.720;2023-04-06T09:11:57;28.83;;;13.17;;
18435;SDS011;9346;52.006;4.720;2023-04-06T09:14:34;30.83;;;14.50;;
18435;SDS011;9346;52.006;4.720;2023-04-06T09:17:03;29.17;;;13.03;;
18435;SDS011;9346;52.006;4.720;2023-04-06T09:19:30;24.23;;;10.97;;
18435;SDS011;9346;52.006;4.720;2023-04-06T09:22:03;26.73;;;13.20;;
18435;SDS011;9346;52.006;4.720;2023-04-06T09:24:43;23.77;;;11.40;;
18435;SDS011;9346;52.006;4.720;2023-04-06T09:27:13;20.83;;;7.93;;
18435;SDS011;9346;52.006;4.720;2023-04-06T09:29:41;13.57;;;7.63;;
18435;SDS011;9346;52.006;4.720;2023-04-06T09:32:08;14.00;;;6.80;;
18435;SDS011;9346;52.006;4.720;2023-04-06T09:34:37;13.53;;;6.93;;
18435;SDS011;9346;52.006;4.720;2023-04-06T09:37:14;13.97;;;7.17;;
18435;SDS011;9346;52.006;4.720;2023-04-06T09:39:43;11.20;;;5.37;;
18435;SDS011;9346;52.006;4.720;2023-04-06T09:42:11;13.63;;;7.07;;
18435;SDS011;9346;52.006;4.720;2023-04-06T09:44:49;21.53;;;8.73;;
18435;SDS011;9346;52.006;4.720;2023-04-06T09:47:15;11.07;;;6.07;;
18435;SDS011;9346;52.006;4.720;2023-04-06T09:49:44;11.03;;;6.20;;
18435;SDS011;9346;52.006;4.720;2023-04-06T09:52:12;11.77;;;6.83;;
18435;SDS011;9346;52.006;4.720;2023-04-06T09:54:42;10.40;;;5.83;;
18435;SDS011;9346;52.006;4.720;2023-04-06T09:57:13;12.30;;;6.37;;
18435;SDS011;9346;52.006;4.720;2023-04-06T09:59:47;13.53;;;6.33;;
18435;SDS011;9346;52.006;4.720;2023-04-06T10:02:22;9.33;;;5.80;;
18435;SDS011;9346;52.006;4.720;2023-04-06T10:05:02;8.83;;;5.17;;
18435;SDS011;9346;52.006;4.720;2023-04-06T10:07:33;12.53;;;5.93;;
18435;SDS011;9346;52.006;4.720;2023-04-06T10:10:03;12.17;;;5.60;;
18435;SDS011;9346;52.006;4.720;2023-04-06T10:12:31;9.77;;;4.70;;
18435;SDS011;9346;52.006;4.720;2023-04-06T10:14:58;7.50;;;4.43;;
18435;SDS011;9346;52.006;4.720;2023-04-06T10:17:25;6.70;;;4.80;;
18435;SDS011;9346;52.006;4.720;2023-04-06T10:19:53;7.70;;;5.33;;
18435;SDS011;9346;52.006;4.720;2023-04-06T10:22:26;10.37;;;5.90;;
18435;SDS011;9346;52.006;4.720;2023-04-06T10:24:59;8.87;;;5.20;;
18435;SDS011;9346;52.006;4.720;2023-04-06T10:27:30;11.60;;;5.50;;
18435;SDS011;9346;52.006;4.720;2023-04-06T10:30:02;12.27;;;5.47;;
18435;SDS011;9346;52.006;4.720;2023-04-06T10:32:34;9.30;;;5.83;;
18435;SDS011;9346;52.006;4.720;2023-04-06T10:35:06;8.93;;;4.97;;
18435;SDS011;9346;52.006;4.720;2023-04-06T10:37:45;11.40;;;6.03;;
18435;SDS011;9346;52.006;4.720;2023-04-06T10:40:21;11.67;;;5.67;;
18435;SDS011;9346;52.006;4.720;2023-04-06T10:42:52;9.23;;;5.83;;
18435;SDS011;9346;52.006;4.720;2023-04-06T10:45:20;10.17;;;6.30;;
18435;SDS011;9346;52.006;4.720;2023-04-06T10:47:48;10.70;;;6.03;;
18435;SDS011;9346;52.006;4.720;2023-04-06T10:50:15;13.93;;;6.40;;
18435;SDS011;9346;52.006;4.720;2023-04-06T10:52:43;10.20;;;5.83;;
18435;SDS011;9346;52.006;4.720;2023-04-06T10:55:12;12.40;;;5.53;;
18435;SDS011;9346;52.006;4.720;2023-04-06T10:57:40;12.33;;;6.57;;
18435;SDS011;9346;52.006;4.720;2023-04-06T11:00:11;9.27;;;6.07;;
18435;SDS011;9346;52.006;4.720;2023-04-06T11:02:38;11.63;;;6.37;;
18435;SDS011;9346;52.006;4.720;2023-04-06T11:05:06;9.90;;;6.43;;
18435;SDS011;9346;52.006;4.720;2023-04-06T11:07:33;10.70;;;6.33;;
18435;SDS011;9346;52.006;4.720;2023-04-06T11:10:00;11.43;;;6.33;;
18435;SDS011;9346;52.006;4.720;2023-04-06T11:12:27;12.40;;;6.10;;
18435;SDS011;9346;52.006;4.720;2023-04-06T11:14:56;13.53;;;7.07;;
18435;SDS011;9346;52.006;4.720;2023-04-06T11:17:29;12.87;;;7.57;;
18435;SDS011;9346;52.006;4.720;2023-04-06T11:19:57;11.00;;;6.67;;
18435;SDS011;9346;52.006;4.720;2023-04-06T11:22:25;13.50;;;7.00;;
18435;SDS011;9346;52.006;4.720;2023-04-06T11:24:53;11.53;;;6.27;;
18435;SDS011;9346;52.006;4.720;2023-04-06T11:27:20;12.90;;;7.50;;
18435;SDS011;9346;52.006;4.720;2023-04-06T11:29:47;17.53;;;8.27;;
18435;SDS011;9346;52.006;4.720;2023-04-06T11:32:21;15.27;;;7.57;;
18435;SDS011;9346;52.006;4.720;2023-04-06T11:34:51;12.10;;;7.07;;
18435;SDS011;9346;52.006;4.720;2023-04-06T11:37:18;11.67;;;6.57;;
18435;SDS011;9346;52.006;4.720;2023-04-06T11:39:46;12.80;;;7.13;;
18435;SDS011;9346;52.006;4.720;2023-04-06T11:42:20;13.73;;;8.03;;
18435;SDS011;9346;52.006;4.720;2023-04-06T11:44:52;11.07;;;7.07;;
18435;SDS011;9346;52.006;4.720;2023-04-06T11:47:28;13.33;;;6.83;;
18435;SDS011;9346;52.006;4.720;2023-04-06T11:50:04;12.63;;;7.30;;
18435;SDS011;9346;52.006;4.720;2023-04-06T11:52:32;14.03;;;7.40;;
18435;SDS011;9346;52.006;4.720;2023-04-06T11:55:09;15.37;;;7.27;;
18435;SDS011;9346;52.006;4.720;2023-04-06T11:57:37;12.23;;;6.33;;
18435;SDS011;9346;52.006;4.720;2023-04-06T12:00:05;10.60;;;6.30;;
18435;SDS011;9346;52.006;4.720;2023-04-06T12:02:33;11.27;;;6.83;;
18435;SDS011;9346;52.006;4.720;2023-04-06T12:05:03;8.93;;;5.50;;
18435;SDS011;9346;52.006;4.720;2023-04-06T12:07:33;10.67;;;6.67;;
18435;SDS011;9346;52.006;4.720;2023-04-06T12:10:00;9.70;;;6.10;;
18435;SDS011;9346;52.006;4.720;2023-04-06T12:12:29;10.73;;;6.37;;
18435;SDS011;9346;52.006;4.720;2023-04-06T12:14:56;13.77;;;7.53;;
18435;SDS011;9346;52.006;4.720;2023-04-06T12:17:23;14.00;;;6.60;;
18435;SDS011;9346;52.006;4.720;2023-04-06T12:19:50;12.43;;;6.83;;
18435;SDS011;9346;52.006;4.720;2023-04-06T12:22:19;11.53;;;6.53;;
18435;SDS011;9346;52.006;4.720;2023-04-06T12:24:45;10.63;;;7.23;;
18435;SDS011;9346;52.006;4.720;2023-04-06T12:27:13;12.40;;;6.90;;
18435;SDS011;9346;52.006;4.720;2023-04-06T12:29:40;10.20;;;6.93;;
18435;SDS011;9346;52.006;4.720;2023-04-06T12:32:06;10.60;;;6.43;;
18435;SDS011;9346;52.006;4.720;2023-04-06T12:34:33;11.53;;;6.93;;
18435;SDS011;9346;52.006;4.720;2023-04-06T12:37:00;11.93;;;6.87;;
18435;SDS011;9346;52.006;4.720;2023-04-06T12:39:30;19.50;;;8.50;;
18435;SDS011;9346;52.006;4.720;2023-04-06T12:41:57;12.20;;;7.80;;
18435;SDS011;9346;52.006;4.720;2023-04-06T12:44:24;15.33;;;7.63;;
18435;SDS011;9346;52.006;4.720;2023-04-06T12:46:51;11.73;;;7.80;;
18435;SDS011;9346;52.006;4.720;2023-04-06T12:49:18;10.77;;;6.50;;
18435;SDS011;9346;52.006;4.720;2023-04-06T12:51:45;11.87;;;6.80;;
18435;SDS011;9346;52.006;4.720;2023-04-06T12:54:12;15.43;;;7.70;;
18435;SDS011;9346;52.006;4.720;2023-04-06T12:56:41;16.00;;;6.87;;
18435;SDS011;9346;52.006;4.720;2023-04-06T12:59:08;11.77;;;6.67;;
18435;SDS011;9346;52.006;4.720;2023-04-06T13:01:35;10.03;;;6.83;;
18435;SDS011;9346;52.006;4.720;2023-04-06T13:04:02;12.47;;;7.23;;
18435;SDS011;9346;52.006;4.720;2023-04-06T13:06:29;14.00;;;7.63;;
18435;SDS011;9346;52.006;4.720;2023-04-06T13:08:56;14.63;;;8.57;;
18435;SDS011;9346;52.006;4.720;2023-04-06T13:11:23;10.63;;;6.83;;
18435;SDS011;9346;52.006;4.720;2023-04-06T13:13:52;14.27;;;8.23;;
18435;SDS011;9346;52.006;4.720;2023-04-06T13:16:19;16.93;;;8.27;;
18435;SDS011;9346;52.006;4.720;2023-04-06T13:18:46;15.57;;;8.07;;
18435;SDS011;9346;52.006;4.720;2023-04-06T13:21:13;11.67;;;6.77;;
18435;SDS011;9346;52.006;4.720;2023-04-06T13:23:41;12.07;;;7.53;;
18435;SDS011;9346;52.006;4.720;2023-04-06T13:26:09;11.53;;;7.07;;
18435;SDS011;9346;52.006;4.720;2023-04-06T13:28:36;12.77;;;7.70;;
18435;SDS011;9346;52.006;4.720;2023-04-06T13:31:05;14.43;;;8.73;;
18435;SDS011;9346;52.006;4.720;2023-04-06T13:33:33;15.10;;;7.93;;
18435;SDS011;9346;52.006;4.720;2023-04-06T13:36:00;13.30;;;7.90;;
18435;SDS011;9346;52.006;4.720;2023-04-06T13:38:27;11.93;;;7.33;;
18435;SDS011;9346;52.006;4.720;2023-04-06T13:40:54;12.57;;;8.07;;
18435;SDS011;9346;52.006;4.720;2023-04-06T13:43:21;12.60;;;8.10;;
18435;SDS011;9346;52.006;4.720;2023-04-06T13:45:51;13.30;;;7.67;;
18435;SDS011;9346;52.006;4.720;2023-04-06T13:48:21;14.37;;;8.20;;
18435;SDS011;9346;52.006;4.720;2023-04-06T13:50:48;12.57;;;7.60;;
18435;SDS011;9346;52.006;4.720;2023-04-06T13:53:15;14.63;;;8.33;;
18435;SDS011;9346;52.006;4.720;2023-04-06T13:55:42;13.73;;;7.77;;
18435;SDS011;9346;52.006;4.720;2023-04-06T13:58:09;15.63;;;8.00;;
18435;SDS011;9346;52.006;4.720;2023-04-06T14:00:36;13.87;;;8.50;;
18435;SDS011;9346;52.006;4.720;2023-04-06T14:03:05;14.17;;;9.13;;
18435;SDS011;9346;52.006;4.720;2023-04-06T14:05:34;17.67;;;7.87;;
18435;SDS011;9346;52.006;4.720;2023-04-06T14:08:01;13.53;;;7.50;;
18435;SDS011;9346;52.006;4.720;2023-04-06T14:10:28;10.40;;;6.77;;
18435;SDS011;9346;52.006;4.720;2023-04-06T14:12:55;14.17;;;7.57;;
18435;SDS011;9346;52.006;4.720;2023-04-06T14:15:23;12.97;;;7.97;;
18435;SDS011;9346;52.006;4.720;2023-04-06T14:17:50;11.80;;;7.20;;
18435;SDS011;9346;52.006;4.720;2023-04-06T14:20:17;13.63;;;7.27;;
18435;SDS011;9346;52.006;4.720;2023-04-06T14:22:46;11.50;;;7.53;;
18435;SDS011;9346;52.006;4.720;2023-04-06T14:25:14;14.30;;;7.60;;
18435;SDS011;9346;52.006;4.720;2023-04-06T14:27:41;12.30;;;7.63;;
18435;SDS011;9346;52.006;4.720;2023-04-06T14:30:09;11.73;;;7.63;;
18435;SDS011;9346;52.006;4.720;2023-04-06T14:32:37;12.13;;;7.37;;
18435;SDS011;9346;52.006;4.720;2023-04-06T14:35:04;13.47;;;7.60;;
18435;SDS011;9346;52.006;4.720;2023-04-06T14:37:31;14.27;;;8.17;;
18435;SDS011;9346;52.006;4.720;2023-04-06T14:40:00;14.43;;;7.27;;
18435;SDS011;9346;52.006;4.720;2023-04-06T14:42:27;12.47;;;7.10;;
18435;SDS011;9346;52.006;4.720;2023-04-06T14:44:54;15.87;;;7.93;;
18435;SDS011;9346;52.006;4.720;2023-04-06T14:47:21;16.53;;;8.23;;
18435;SDS011;9346;52.006;4.720;2023-04-06T14:49:50;13.27;;;8.07;;